Terminal Aerodrome Forecast
Issued by NWS Wakefield, VA

Home | Current Version | Previous Version | Text Only | Print | Product List | Glossary On
Versions: 1 2 3 4 5 6 7 8 9 10 11 12 13 14 15 16 17 18 19 20 21 22 23
000
FTUS41 KAKQ 221205 AAA
TAFECG
TAF AMD
KECG 221205Z 2212/2312 22008KT P6SM BKN250
     FM221500 24008KT P6SM SCT250
     FM222300 22008KT P6SM BKN200
     FM230600 23007KT P6SM OVC100=

USA.gov is the U.S. government's official web portal to all federal, state and local government web resources and services.